sensor_id;sensor_type;location;lat;lon;timestamp;P1;durP1;ratioP1;P2;durP2;ratioP2
14282;SDS011;7225;59.282;18.344;2023-03-23T00:01:48;4.60;;;1.13;;
14282;SDS011;7225;59.282;18.344;2023-03-23T00:04:15;2.97;;;0.90;;
14282;SDS011;7225;59.282;18.344;2023-03-23T00:06:41;4.30;;;1.10;;
14282;SDS011;7225;59.282;18.344;2023-03-23T00:09:10;3.43;;;0.97;;
14282;SDS011;7225;59.282;18.344;2023-03-23T00:11:38;3.20;;;0.77;;
14282;SDS011;7225;59.282;18.344;2023-03-23T00:14:07;4.37;;;1.37;;
14282;SDS011;7225;59.282;18.344;2023-03-23T00:16:38;3.77;;;1.13;;
14282;SDS011;7225;59.282;18.344;2023-03-23T00:19:07;6.30;;;1.00;;
14282;SDS011;7225;59.282;18.344;2023-03-23T00:21:38;6.20;;;1.47;;
14282;SDS011;7225;59.282;18.344;2023-03-23T00:24:17;5.20;;;1.23;;
14282;SDS011;7225;59.282;18.344;2023-03-23T00:26:46;5.13;;;1.67;;
14282;SDS011;7225;59.282;18.344;2023-03-23T00:29:14;5.57;;;1.23;;
14282;SDS011;7225;59.282;18.344;2023-03-23T00:31:46;5.87;;;1.50;;
14282;SDS011;7225;59.282;18.344;2023-03-23T00:34:17;4.97;;;1.30;;
14282;SDS011;7225;59.282;18.344;2023-03-23T00:36:46;8.43;;;1.80;;
14282;SDS011;7225;59.282;18.344;2023-03-23T00:39:13;8.50;;;1.47;;
14282;SDS011;7225;59.282;18.344;2023-03-23T00:41:41;8.37;;;2.00;;
14282;SDS011;7225;59.282;18.344;2023-03-23T00:44:08;4.50;;;1.27;;
14282;SDS011;7225;59.282;18.344;2023-03-23T00:46:34;12.90;;;1.90;;
14282;SDS011;7225;59.282;18.344;2023-03-23T00:48:59;6.37;;;1.30;;
14282;SDS011;7225;59.282;18.344;2023-03-23T00:51:25;6.20;;;1.30;;
14282;SDS011;7225;59.282;18.344;2023-03-23T00:53:51;5.90;;;1.63;;
14282;SDS011;7225;59.282;18.344;2023-03-23T00:56:18;7.90;;;1.60;;
14282;SDS011;7225;59.282;18.344;2023-03-23T00:58:44;7.73;;;1.80;;
14282;SDS011;7225;59.282;18.344;2023-03-23T01:01:10;12.13;;;2.30;;
14282;SDS011;7225;59.282;18.344;2023-03-23T01:03:36;7.57;;;1.53;;
14282;SDS011;7225;59.282;18.344;2023-03-23T01:06:09;8.70;;;1.73;;
14282;SDS011;7225;59.282;18.344;2023-03-23T01:08:41;8.13;;;2.23;;
14282;SDS011;7225;59.282;18.344;2023-03-23T01:11:14;8.17;;;2.23;;
14282;SDS011;7225;59.282;18.344;2023-03-23T01:13:41;7.37;;;1.87;;
14282;SDS011;7225;59.282;18.344;2023-03-23T01:16:08;10.93;;;2.30;;
14282;SDS011;7225;59.282;18.344;2023-03-23T01:18:36;6.87;;;2.00;;
14282;SDS011;7225;59.282;18.344;2023-03-23T01:21:04;6.13;;;2.20;;
14282;SDS011;7225;59.282;18.344;2023-03-23T01:23:32;8.63;;;2.37;;
14282;SDS011;7225;59.282;18.344;2023-03-23T01:26:02;10.13;;;2.57;;
14282;SDS011;7225;59.282;18.344;2023-03-23T01:28:29;10.13;;;2.50;;
14282;SDS011;7225;59.282;18.344;2023-03-23T01:30:59;8.00;;;2.23;;
14282;SDS011;7225;59.282;18.344;2023-03-23T01:33:27;10.07;;;2.07;;
14282;SDS011;7225;59.282;18.344;2023-03-23T01:35:53;10.70;;;2.50;;
14282;SDS011;7225;59.282;18.344;2023-03-23T01:38:20;9.60;;;2.00;;
14282;SDS011;7225;59.282;18.344;2023-03-23T01:40:46;11.63;;;2.20;;
14282;SDS011;7225;59.282;18.344;2023-03-23T01:43:13;7.97;;;2.13;;
14282;SDS011;7225;59.282;18.344;2023-03-23T01:45:40;12.93;;;3.33;;
14282;SDS011;7225;59.282;18.344;2023-03-23T01:48:12;11.00;;;2.37;;
14282;SDS011;7225;59.282;18.344;2023-03-23T01:50:57;9.23;;;2.27;;
14282;SDS011;7225;59.282;18.344;2023-03-23T01:53:28;8.67;;;2.10;;
14282;SDS011;7225;59.282;18.344;2023-03-23T01:55:59;11.13;;;2.10;;
14282;SDS011;7225;59.282;18.344;2023-03-23T01:58:27;10.50;;;3.17;;
14282;SDS011;7225;59.282;18.344;2023-03-23T02:00:57;10.47;;;2.43;;
14282;SDS011;7225;59.282;18.344;2023-03-23T02:03:27;13.13;;;3.03;;
14282;SDS011;7225;59.282;18.344;2023-03-23T02:05:56;6.70;;;2.30;;
14282;SDS011;7225;59.282;18.344;2023-03-23T02:08:28;14.10;;;2.17;;
14282;SDS011;7225;59.282;18.344;2023-03-23T02:10:57;11.10;;;2.43;;
14282;SDS011;7225;59.282;18.344;2023-03-23T02:13:24;9.27;;;2.47;;
14282;SDS011;7225;59.282;18.344;2023-03-23T02:23:50;9.47;;;2.33;;
14282;SDS011;7225;59.282;18.344;2023-03-23T02:34:51;12.87;;;3.07;;
14282;SDS011;7225;59.282;18.344;2023-03-23T02:37:43;12.27;;;2.93;;
14282;SDS011;7225;59.282;18.344;2023-03-23T02:40:17;10.23;;;2.30;;
14282;SDS011;7225;59.282;18.344;2023-03-23T02:42:54;8.93;;;2.07;;
14282;SDS011;7225;59.282;18.344;2023-03-23T02:45:22;10.07;;;2.70;;
14282;SDS011;7225;59.282;18.344;2023-03-23T02:47:52;11.17;;;2.60;;
14282;SDS011;7225;59.282;18.344;2023-03-23T02:50:20;9.40;;;2.13;;
14282;SDS011;7225;59.282;18.344;2023-03-23T02:52:49;10.87;;;2.70;;
14282;SDS011;7225;59.282;18.344;2023-03-23T02:55:18;13.57;;;2.37;;
14282;SDS011;7225;59.282;18.344;2023-03-23T02:57:45;11.83;;;2.67;;
14282;SDS011;7225;59.282;18.344;2023-03-23T03:00:12;13.27;;;2.83;;
14282;SDS011;7225;59.282;18.344;2023-03-23T03:02:43;9.77;;;2.43;;
14282;SDS011;7225;59.282;18.344;2023-03-23T03:15:40;9.87;;;2.10;;
14282;SDS011;7225;59.282;18.344;2023-03-23T03:21:12;12.70;;;2.70;;
14282;SDS011;7225;59.282;18.344;2023-03-23T03:23:40;11.90;;;2.80;;
14282;SDS011;7225;59.282;18.344;2023-03-23T03:26:10;15.50;;;2.80;;
14282;SDS011;7225;59.282;18.344;2023-03-23T03:28:38;12.97;;;2.53;;
14282;SDS011;7225;59.282;18.344;2023-03-23T03:31:06;12.63;;;2.13;;
14282;SDS011;7225;59.282;18.344;2023-03-23T03:33:33;9.67;;;2.33;;
14282;SDS011;7225;59.282;18.344;2023-03-23T03:36:01;13.53;;;2.67;;
14282;SDS011;7225;59.282;18.344;2023-03-23T03:38:29;10.40;;;2.57;;
14282;SDS011;7225;59.282;18.344;2023-03-23T03:40:56;10.17;;;2.83;;
14282;SDS011;7225;59.282;18.344;2023-03-23T03:43:22;13.37;;;2.60;;
14282;SDS011;7225;59.282;18.344;2023-03-23T03:45:48;9.50;;;2.07;;
14282;SDS011;7225;59.282;18.344;2023-03-23T03:48:13;13.70;;;2.87;;
14282;SDS011;7225;59.282;18.344;2023-03-23T03:50:39;15.63;;;4.27;;
14282;SDS011;7225;59.282;18.344;2023-03-23T03:53:06;14.80;;;3.73;;
14282;SDS011;7225;59.282;18.344;2023-03-23T03:55:32;8.40;;;2.50;;
14282;SDS011;7225;59.282;18.344;2023-03-23T03:58:03;12.93;;;3.13;;
14282;SDS011;7225;59.282;18.344;2023-03-23T04:00:30;12.37;;;2.40;;
14282;SDS011;7225;59.282;18.344;2023-03-23T04:03:16;13.87;;;3.10;;
14282;SDS011;7225;59.282;18.344;2023-03-23T04:05:42;8.50;;;2.23;;
14282;SDS011;7225;59.282;18.344;2023-03-23T04:08:10;12.33;;;2.63;;
14282;SDS011;7225;59.282;18.344;2023-03-23T04:10:37;13.27;;;2.77;;
14282;SDS011;7225;59.282;18.344;2023-03-23T04:13:03;15.97;;;3.23;;
14282;SDS011;7225;59.282;18.344;2023-03-23T04:15:30;15.83;;;2.83;;
14282;SDS011;7225;59.282;18.344;2023-03-23T04:17:56;11.47;;;3.53;;
14282;SDS011;7225;59.282;18.344;2023-03-23T04:20:22;13.00;;;3.00;;
14282;SDS011;7225;59.282;18.344;2023-03-23T04:22:48;15.60;;;3.33;;
14282;SDS011;7225;59.282;18.344;2023-03-23T04:25:15;10.53;;;2.77;;
14282;SDS011;7225;59.282;18.344;2023-03-23T04:27:46;17.73;;;3.10;;
14282;SDS011;7225;59.282;18.344;2023-03-23T04:30:21;14.70;;;2.93;;
14282;SDS011;7225;59.282;18.344;2023-03-23T04:32:49;12.03;;;2.67;;
14282;SDS011;7225;59.282;18.344;2023-03-23T04:35:16;14.03;;;2.60;;
14282;SDS011;7225;59.282;18.344;2023-03-23T04:37:43;13.50;;;3.07;;
14282;SDS011;7225;59.282;18.344;2023-03-23T04:40:09;17.03;;;2.93;;
14282;SDS011;7225;59.282;18.344;2023-03-23T04:42:38;12.37;;;2.80;;
14282;SDS011;7225;59.282;18.344;2023-03-23T04:45:06;13.00;;;2.70;;
14282;SDS011;7225;59.282;18.344;2023-03-23T04:47:34;8.20;;;2.67;;
14282;SDS011;7225;59.282;18.344;2023-03-23T04:50:12;10.93;;;2.53;;
14282;SDS011;7225;59.282;18.344;2023-03-23T04:52:38;8.10;;;2.47;;
14282;SDS011;7225;59.282;18.344;2023-03-23T04:55:06;11.40;;;2.83;;
14282;SDS011;7225;59.282;18.344;2023-03-23T04:57:33;10.30;;;2.93;;
14282;SDS011;7225;59.282;18.344;2023-03-23T05:00:00;12.83;;;2.90;;
14282;SDS011;7225;59.282;18.344;2023-03-23T05:02:34;15.10;;;3.20;;
14282;SDS011;7225;59.282;18.344;2023-03-23T05:05:01;15.37;;;2.63;;
14282;SDS011;7225;59.282;18.344;2023-03-23T05:07:27;17.60;;;3.17;;
14282;SDS011;7225;59.282;18.344;2023-03-23T05:09:53;16.40;;;3.40;;
14282;SDS011;7225;59.282;18.344;2023-03-23T05:12:18;12.60;;;3.17;;
14282;SDS011;7225;59.282;18.344;2023-03-23T05:14:44;11.23;;;2.87;;
14282;SDS011;7225;59.282;18.344;2023-03-23T05:17:10;11.60;;;2.97;;
14282;SDS011;7225;59.282;18.344;2023-03-23T05:19:37;13.93;;;3.03;;
14282;SDS011;7225;59.282;18.344;2023-03-23T05:22:03;10.27;;;2.67;;
14282;SDS011;7225;59.282;18.344;2023-03-23T05:24:30;18.73;;;4.10;;
14282;SDS011;7225;59.282;18.344;2023-03-23T05:26:59;13.07;;;3.10;;
14282;SDS011;7225;59.282;18.344;2023-03-23T05:29:25;10.50;;;2.70;;
14282;SDS011;7225;59.282;18.344;2023-03-23T05:31:52;12.23;;;2.57;;
14282;SDS011;7225;59.282;18.344;2023-03-23T05:34:20;8.43;;;3.00;;
14282;SDS011;7225;59.282;18.344;2023-03-23T05:36:46;16.67;;;2.87;;
14282;SDS011;7225;59.282;18.344;2023-03-23T05:39:12;13.37;;;2.70;;
14282;SDS011;7225;59.282;18.344;2023-03-23T05:41:41;12.03;;;2.40;;
14282;SDS011;7225;59.282;18.344;2023-03-23T05:44:07;12.23;;;2.80;;
14282;SDS011;7225;59.282;18.344;2023-03-23T05:46:33;12.43;;;3.00;;
14282;SDS011;7225;59.282;18.344;2023-03-23T05:48:59;11.50;;;3.10;;
14282;SDS011;7225;59.282;18.344;2023-03-23T05:51:25;14.10;;;3.00;;
14282;SDS011;7225;59.282;18.344;2023-03-23T05:53:51;13.73;;;2.57;;
14282;SDS011;7225;59.282;18.344;2023-03-23T05:56:17;18.57;;;3.33;;
14282;SDS011;7225;59.282;18.344;2023-03-23T05:58:43;12.33;;;3.03;;
14282;SDS011;7225;59.282;18.344;2023-03-23T06:01:09;18.37;;;3.07;;
14282;SDS011;7225;59.282;18.344;2023-03-23T06:03:37;17.67;;;3.50;;
14282;SDS011;7225;59.282;18.344;2023-03-23T06:06:03;15.63;;;3.80;;
14282;SDS011;7225;59.282;18.344;2023-03-23T06:08:30;11.90;;;2.93;;
14282;SDS011;7225;59.282;18.344;2023-03-23T06:10:56;8.93;;;2.60;;
14282;SDS011;7225;59.282;18.344;2023-03-23T06:13:22;13.50;;;3.20;;
14282;SDS011;7225;59.282;18.344;2023-03-23T06:15:48;9.33;;;2.77;;
14282;SDS011;7225;59.282;18.344;2023-03-23T06:18:15;8.57;;;2.60;;
14282;SDS011;7225;59.282;18.344;2023-03-23T06:20:41;10.50;;;3.20;;
14282;SDS011;7225;59.282;18.344;2023-03-23T06:23:09;12.03;;;3.20;;
14282;SDS011;7225;59.282;18.344;2023-03-23T06:25:35;11.40;;;2.47;;
14282;SDS011;7225;59.282;18.344;2023-03-23T06:28:01;10.47;;;2.90;;
14282;SDS011;7225;59.282;18.344;2023-03-23T06:30:27;12.13;;;2.97;;
14282;SDS011;7225;59.282;18.344;2023-03-23T06:32:54;9.97;;;2.80;;
14282;SDS011;7225;59.282;18.344;2023-03-23T06:35:21;13.27;;;2.83;;
14282;SDS011;7225;59.282;18.344;2023-03-23T06:37:46;14.87;;;2.80;;
14282;SDS011;7225;59.282;18.344;2023-03-23T06:40:12;10.77;;;2.80;;
14282;SDS011;7225;59.282;18.344;2023-03-23T06:42:38;11.67;;;2.83;;
14282;SDS011;7225;59.282;18.344;2023-03-23T06:45:05;9.53;;;2.90;;
14282;SDS011;7225;59.282;18.344;2023-03-23T06:47:32;8.17;;;2.10;;
14282;SDS011;7225;59.282;18.344;2023-03-23T06:49:58;12.77;;;2.57;;
14282;SDS011;7225;59.282;18.344;2023-03-23T06:52:25;9.13;;;2.43;;
14282;SDS011;7225;59.282;18.344;2023-03-23T06:54:51;14.03;;;3.10;;
14282;SDS011;7225;59.282;18.344;2023-03-23T06:57:18;13.27;;;2.83;;
14282;SDS011;7225;59.282;18.344;2023-03-23T06:59:44;11.50;;;2.43;;
14282;SDS011;7225;59.282;18.344;2023-03-23T07:02:11;9.40;;;3.00;;
14282;SDS011;7225;59.282;18.344;2023-03-23T07:04:39;10.17;;;3.17;;
14282;SDS011;7225;59.282;18.344;2023-03-23T07:07:07;8.43;;;3.10;;
14282;SDS011;7225;59.282;18.344;2023-03-23T07:09:34;11.17;;;3.37;;
14282;SDS011;7225;59.282;18.344;2023-03-23T07:12:00;11.20;;;2.53;;
14282;SDS011;7225;59.282;18.344;2023-03-23T07:14:26;11.97;;;2.80;;
14282;SDS011;7225;59.282;18.344;2023-03-23T07:16:52;10.90;;;2.17;;
14282;SDS011;7225;59.282;18.344;2023-03-23T07:19:19;13.03;;;3.83;;
14282;SDS011;7225;59.282;18.344;2023-03-23T07:21:45;9.97;;;2.47;;
14282;SDS011;7225;59.282;18.344;2023-03-23T07:24:11;11.10;;;2.03;;
14282;SDS011;7225;59.282;18.344;2023-03-23T07:26:41;10.97;;;2.40;;
14282;SDS011;7225;59.282;18.344;2023-03-23T07:29:08;10.20;;;2.03;;
14282;SDS011;7225;59.282;18.344;2023-03-23T07:31:34;16.03;;;2.67;;
14282;SDS011;7225;59.282;18.344;2023-03-23T07:34:01;12.50;;;3.13;;
14282;SDS011;7225;59.282;18.344;2023-03-23T07:36:28;10.07;;;2.33;;
14282;SDS011;7225;59.282;18.344;2023-03-23T07:38:54;9.30;;;2.30;;
14282;SDS011;7225;59.282;18.344;2023-03-23T07:41:20;11.57;;;2.43;;
14282;SDS011;7225;59.282;18.344;2023-03-23T07:43:46;9.90;;;2.80;;
14282;SDS011;7225;59.282;18.344;2023-03-23T07:46:12;10.13;;;2.50;;
14282;SDS011;7225;59.282;18.344;2023-03-23T07:48:38;9.63;;;2.60;;
14282;SDS011;7225;59.282;18.344;2023-03-23T07:51:06;10.20;;;2.60;;
14282;SDS011;7225;59.282;18.344;2023-03-23T07:53:32;8.13;;;2.13;;
14282;SDS011;7225;59.282;18.344;2023-03-23T07:55:59;14.90;;;2.73;;
14282;SDS011;7225;59.282;18.344;2023-03-23T07:58:26;8.53;;;2.60;;
14282;SDS011;7225;59.282;18.344;2023-03-23T08:00:53;10.33;;;2.53;;
14282;SDS011;7225;59.282;18.344;2023-03-23T08:03:21;11.63;;;2.40;;
14282;SDS011;7225;59.282;18.344;2023-03-23T08:05:47;9.00;;;2.37;;
14282;SDS011;7225;59.282;18.344;2023-03-23T08:08:13;7.20;;;2.40;;
14282;SDS011;7225;59.282;18.344;2023-03-23T08:10:39;9.97;;;2.17;;
14282;SDS011;7225;59.282;18.344;2023-03-23T08:13:05;10.53;;;1.87;;
14282;SDS011;7225;59.282;18.344;2023-03-23T08:15:32;11.10;;;2.30;;
14282;SDS011;7225;59.282;18.344;2023-03-23T08:18:02;9.20;;;2.60;;
14282;SDS011;7225;59.282;18.344;2023-03-23T08:20:28;12.10;;;2.27;;
14282;SDS011;7225;59.282;18.344;2023-03-23T08:22:55;11.67;;;2.50;;
14282;SDS011;7225;59.282;18.344;2023-03-23T08:25:22;12.73;;;3.10;;
14282;SDS011;7225;59.282;18.344;2023-03-23T08:27:51;10.20;;;2.67;;
14282;SDS011;7225;59.282;18.344;2023-03-23T08:30:19;13.40;;;2.73;;
14282;SDS011;7225;59.282;18.344;2023-03-23T08:32:47;10.63;;;2.13;;
14282;SDS011;7225;59.282;18.344;2023-03-23T08:35:14;8.53;;;1.83;;
14282;SDS011;7225;59.282;18.344;2023-03-23T08:37:41;8.67;;;2.53;;
14282;SDS011;7225;59.282;18.344;2023-03-23T08:40:11;7.30;;;2.13;;
14282;SDS011;7225;59.282;18.344;2023-03-23T08:42:40;8.33;;;2.33;;
14282;SDS011;7225;59.282;18.344;2023-03-23T08:45:08;10.73;;;2.67;;
14282;SDS011;7225;59.282;18.344;2023-03-23T08:47:36;12.93;;;2.97;;
14282;SDS011;7225;59.282;18.344;2023-03-23T08:50:06;9.33;;;2.37;;
14282;SDS011;7225;59.282;18.344;2023-03-23T08:52:33;7.63;;;2.20;;
14282;SDS011;7225;59.282;18.344;2023-03-23T08:54:59;12.77;;;2.80;;
14282;SDS011;7225;59.282;18.344;2023-03-23T08:57:25;12.53;;;2.50;;
14282;SDS011;7225;59.282;18.344;2023-03-23T08:59:51;9.47;;;3.20;;
14282;SDS011;7225;59.282;18.344;2023-03-23T09:02:19;11.20;;;2.27;;
14282;SDS011;7225;59.282;18.344;2023-03-23T09:04:46;15.53;;;2.60;;
14282;SDS011;7225;59.282;18.344;2023-03-23T09:07:12;13.93;;;2.43;;
14282;SDS011;7225;59.282;18.344;2023-03-23T09:09:39;8.83;;;2.10;;
14282;SDS011;7225;59.282;18.344;2023-03-23T09:12:06;5.37;;;2.07;;
14282;SDS011;7225;59.282;18.344;2023-03-23T09:14:33;9.73;;;2.90;;
14282;SDS011;7225;59.282;18.344;2023-03-23T09:17:01;8.20;;;2.50;;
14282;SDS011;7225;59.282;18.344;2023-03-23T09:19:28;7.77;;;2.23;;
14282;SDS011;7225;59.282;18.344;2023-03-23T09:21:56;10.43;;;2.20;;
14282;SDS011;7225;59.282;18.344;2023-03-23T09:24:22;10.03;;;2.03;;
14282;SDS011;7225;59.282;18.344;2023-03-23T09:26:47;7.60;;;2.80;;
14282;SDS011;7225;59.282;18.344;2023-03-23T09:29:13;9.33;;;3.37;;
14282;SDS011;7225;59.282;18.344;2023-03-23T09:31:40;10.53;;;2.70;;
14282;SDS011;7225;59.282;18.344;2023-03-23T09:34:07;9.87;;;2.27;;
14282;SDS011;7225;59.282;18.344;2023-03-23T09:36:35;7.40;;;1.90;;
14282;SDS011;7225;59.282;18.344;2023-03-23T09:39:04;10.07;;;2.37;;
14282;SDS011;7225;59.282;18.344;2023-03-23T09:47:25;6.53;;;2.07;;
14282;SDS011;7225;59.282;18.344;2023-03-23T09:52:44;11.57;;;2.70;;
14282;SDS011;7225;59.282;18.344;2023-03-23T09:55:16;8.60;;;2.60;;
14282;SDS011;7225;59.282;18.344;2023-03-23T10:00:29;9.97;;;2.60;;
14282;SDS011;7225;59.282;18.344;2023-03-23T10:03:16;10.53;;;2.50;;
14282;SDS011;7225;59.282;18.344;2023-03-23T10:05:53;9.37;;;2.40;;
14282;SDS011;7225;59.282;18.344;2023-03-23T10:08:21;11.10;;;3.13;;
14282;SDS011;7225;59.282;18.344;2023-03-23T10:17:09;7.13;;;1.97;;
14282;SDS011;7225;59.282;18.344;2023-03-23T10:19:47;10.57;;;2.10;;
14282;SDS011;7225;59.282;18.344;2023-03-23T10:22:45;10.37;;;2.17;;
14282;SDS011;7225;59.282;18.344;2023-03-23T10:25:23;7.37;;;2.10;;
14282;SDS011;7225;59.282;18.344;2023-03-23T10:28:01;10.23;;;2.50;;
14282;SDS011;7225;59.282;18.344;2023-03-23T10:30:39;11.03;;;2.67;;
14282;SDS011;7225;59.282;18.344;2023-03-23T10:33:41;8.17;;;1.97;;
14282;SDS011;7225;59.282;18.344;2023-03-23T10:36:29;5.50;;;1.93;;
14282;SDS011;7225;59.282;18.344;2023-03-23T10:39:22;10.83;;;2.50;;
14282;SDS011;7225;59.282;18.344;2023-03-23T10:41:52;6.13;;;1.73;;
14282;SDS011;7225;59.282;18.344;2023-03-23T10:44:19;10.17;;;2.20;;
14282;SDS011;7225;59.282;18.344;2023-03-23T10:47:05;12.07;;;2.73;;
14282;SDS011;7225;59.282;18.344;2023-03-23T10:49:37;8.43;;;2.63;;
14282;SDS011;7225;59.282;18.344;2023-03-23T10:54:39;9.17;;;2.10;;
14282;SDS011;7225;59.282;18.344;2023-03-23T10:57:22;8.83;;;2.27;;
14282;SDS011;7225;59.282;18.344;2023-03-23T10:59:57;6.47;;;2.10;;
14282;SDS011;7225;59.282;18.344;2023-03-23T11:02:24;6.83;;;1.90;;
14282;SDS011;7225;59.282;18.344;2023-03-23T11:04:56;11.30;;;2.17;;
14282;SDS011;7225;59.282;18.344;2023-03-23T11:07:31;8.77;;;2.23;;
14282;SDS011;7225;59.282;18.344;2023-03-23T11:10:03;10.07;;;1.87;;
14282;SDS011;7225;59.282;18.344;2023-03-23T11:12:34;3.63;;;1.50;;
14282;SDS011;7225;59.282;18.344;2023-03-23T11:15:42;5.87;;;1.90;;
14282;SDS011;7225;59.282;18.344;2023-03-23T11:18:19;8.80;;;2.50;;
14282;SDS011;7225;59.282;18.344;2023-03-23T11:20:48;8.50;;;2.33;;
14282;SDS011;7225;59.282;18.344;2023-03-23T11:23:24;7.43;;;1.70;;
14282;SDS011;7225;59.282;18.344;2023-03-23T11:26:08;6.67;;;1.90;;
14282;SDS011;7225;59.282;18.344;2023-03-23T11:28:44;13.93;;;2.77;;
14282;SDS011;7225;59.282;18.344;2023-03-23T11:31:15;7.37;;;2.07;;
14282;SDS011;7225;59.282;18.344;2023-03-23T11:36:17;8.10;;;1.83;;
14282;SDS011;7225;59.282;18.344;2023-03-23T11:38:43;7.23;;;2.20;;
14282;SDS011;7225;59.282;18.344;2023-03-23T11:41:11;7.53;;;2.07;;
14282;SDS011;7225;59.282;18.344;2023-03-23T11:43:41;8.37;;;2.83;;
14282;SDS011;7225;59.282;18.344;2023-03-23T11:52:59;7.30;;;1.73;;
14282;SDS011;7225;59.282;18.344;2023-03-23T11:55:23;5.60;;;2.20;;
14282;SDS011;7225;59.282;18.344;2023-03-23T11:57:54;9.37;;;2.60;;
14282;SDS011;7225;59.282;18.344;2023-03-23T12:00:25;7.63;;;2.10;;
14282;SDS011;7225;59.282;18.344;2023-03-23T12:06:03;7.93;;;2.30;;
14282;SDS011;7225;59.282;18.344;2023-03-23T12:11:35;8.00;;;2.33;;
14282;SDS011;7225;59.282;18.344;2023-03-23T12:42:05;7.43;;;2.00;;
14282;SDS011;7225;59.282;18.344;2023-03-23T12:44:12;8.50;;;2.20;;
14282;SDS011;7225;59.282;18.344;2023-03-23T12:49:37;7.83;;;1.70;;
14282;SDS011;7225;59.282;18.344;2023-03-23T12:52:32;9.80;;;2.53;;
14282;SDS011;7225;59.282;18.344;2023-03-23T12:57:43;11.40;;;2.20;;
14282;SDS011;7225;59.282;18.344;2023-03-23T13:06:00;7.60;;;1.97;;
14282;SDS011;7225;59.282;18.344;2023-03-23T13:08:46;7.17;;;2.27;;
14282;SDS011;7225;59.282;18.344;2023-03-23T13:11:19;9.17;;;2.30;;
14282;SDS011;7225;59.282;18.344;2023-03-23T13:13:51;5.73;;;1.67;;
14282;SDS011;7225;59.282;18.344;2023-03-23T13:16:31;6.87;;;1.87;;
14282;SDS011;7225;59.282;18.344;2023-03-23T13:19:07;5.63;;;2.20;;
14282;SDS011;7225;59.282;18.344;2023-03-23T13:21:45;4.03;;;2.07;;
14282;SDS011;7225;59.282;18.344;2023-03-23T13:24:19;10.20;;;3.03;;
14282;SDS011;7225;59.282;18.344;2023-03-23T13:26:48;7.83;;;2.50;;
14282;SDS011;7225;59.282;18.344;2023-03-23T13:29:19;8.80;;;2.30;;
14282;SDS011;7225;59.282;18.344;2023-03-23T13:31:49;9.37;;;2.57;;
14282;SDS011;7225;59.282;18.344;2023-03-23T13:36:59;10.20;;;2.10;;
14282;SDS011;7225;59.282;18.344;2023-03-23T13:42:24;6.43;;;1.80;;
14282;SDS011;7225;59.282;18.344;2023-03-23T13:50:08;7.90;;;2.00;;
14282;SDS011;7225;59.282;18.344;2023-03-23T13:55:21;6.33;;;2.17;;
14282;SDS011;7225;59.282;18.344;2023-03-23T14:03:01;7.10;;;2.10;;
14282;SDS011;7225;59.282;18.344;2023-03-23T14:08:36;8.20;;;2.17;;
14282;SDS011;7225;59.282;18.344;2023-03-23T14:13:43;4.83;;;1.67;;
14282;SDS011;7225;59.282;18.344;2023-03-23T14:16:17;9.03;;;2.40;;
14282;SDS011;7225;59.282;18.344;2023-03-23T14:18:59;5.70;;;1.50;;
14282;SDS011;7225;59.282;18.344;2023-03-23T14:33:12;7.97;;;1.90;;
14282;SDS011;7225;59.282;18.344;2023-03-23T14:35:40;5.33;;;1.50;;
14282;SDS011;7225;59.282;18.344;2023-03-23T14:38:15;6.63;;;1.73;;
14282;SDS011;7225;59.282;18.344;2023-03-23T14:40:45;8.33;;;1.83;;
14282;SDS011;7225;59.282;18.344;2023-03-23T14:43:13;5.03;;;1.90;;
14282;SDS011;7225;59.282;18.344;2023-03-23T14:45:41;14.07;;;2.23;;
14282;SDS011;7225;59.282;18.344;2023-03-23T14:48:08;4.77;;;1.73;;
14282;SDS011;7225;59.282;18.344;2023-03-23T14:53:22;4.07;;;1.73;;
14282;SDS011;7225;59.282;18.344;2023-03-23T14:55:54;4.20;;;1.70;;
14282;SDS011;7225;59.282;18.344;2023-03-23T14:58:22;5.57;;;1.50;;
14282;SDS011;7225;59.282;18.344;2023-03-23T15:03:20;3.77;;;1.40;;
14282;SDS011;7225;59.282;18.344;2023-03-23T15:05:57;4.63;;;1.67;;
14282;SDS011;7225;59.282;18.344;2023-03-23T15:08:27;5.57;;;1.57;;
14282;SDS011;7225;59.282;18.344;2023-03-23T15:10:59;3.77;;;1.50;;
14282;SDS011;7225;59.282;18.344;2023-03-23T15:13:30;4.37;;;1.40;;
14282;SDS011;7225;59.282;18.344;2023-03-23T15:16:07;3.43;;;1.30;;
14282;SDS011;7225;59.282;18.344;2023-03-23T15:18:53;3.87;;;1.27;;
14282;SDS011;7225;59.282;18.344;2023-03-23T15:21:28;3.67;;;1.60;;
14282;SDS011;7225;59.282;18.344;2023-03-23T15:23:56;4.30;;;1.50;;
14282;SDS011;7225;59.282;18.344;2023-03-23T15:26:33;6.07;;;1.50;;
14282;SDS011;7225;59.282;18.344;2023-03-23T15:31:33;3.07;;;1.40;;
14282;SDS011;7225;59.282;18.344;2023-03-23T15:34:01;4.60;;;1.70;;
14282;SDS011;7225;59.282;18.344;2023-03-23T15:36:31;5.80;;;2.07;;
14282;SDS011;7225;59.282;18.344;2023-03-23T15:39:00;3.73;;;1.10;;
14282;SDS011;7225;59.282;18.344;2023-03-23T15:41:27;8.20;;;1.70;;
14282;SDS011;7225;59.282;18.344;2023-03-23T15:44:08;4.20;;;1.53;;
14282;SDS011;7225;59.282;18.344;2023-03-23T15:46:54;4.10;;;1.13;;
14282;SDS011;7225;59.282;18.344;2023-03-23T15:49:38;4.03;;;1.57;;
14282;SDS011;7225;59.282;18.344;2023-03-23T15:52:06;3.13;;;1.30;;
14282;SDS011;7225;59.282;18.344;2023-03-23T15:54:37;5.37;;;1.30;;
14282;SDS011;7225;59.282;18.344;2023-03-23T15:57:03;4.27;;;1.13;;
14282;SDS011;7225;59.282;18.344;2023-03-23T15:59:29;5.47;;;1.50;;
14282;SDS011;7225;59.282;18.344;2023-03-23T16:01:56;5.07;;;1.40;;
14282;SDS011;7225;59.282;18.344;2023-03-23T16:04:23;3.00;;;1.33;;
14282;SDS011;7225;59.282;18.344;2023-03-23T16:06:52;5.47;;;1.60;;
14282;SDS011;7225;59.282;18.344;2023-03-23T16:09:22;4.67;;;1.47;;
14282;SDS011;7225;59.282;18.344;2023-03-23T16:11:49;4.37;;;1.43;;
14282;SDS011;7225;59.282;18.344;2023-03-23T16:14:16;5.77;;;1.43;;
14282;SDS011;7225;59.282;18.344;2023-03-23T16:16:43;7.17;;;1.80;;
14282;SDS011;7225;59.282;18.344;2023-03-23T16:19:16;4.73;;;1.40;;
14282;SDS011;7225;59.282;18.344;2023-03-23T16:21:45;5.30;;;1.93;;
14282;SDS011;7225;59.282;18.344;2023-03-23T16:24:12;4.80;;;1.47;;
14282;SDS011;7225;59.282;18.344;2023-03-23T16:26:39;6.10;;;1.70;;
14282;SDS011;7225;59.282;18.344;2023-03-23T16:29:13;6.70;;;3.30;;
14282;SDS011;7225;59.282;18.344;2023-03-23T16:32:01;5.63;;;1.97;;
14282;SDS011;7225;59.282;18.344;2023-03-23T16:34:28;7.80;;;3.90;;
14282;SDS011;7225;59.282;18.344;2023-03-23T16:36:59;6.13;;;2.07;;
14282;SDS011;7225;59.282;18.344;2023-03-23T16:39:26;4.60;;;1.70;;
14282;SDS011;7225;59.282;18.344;2023-03-23T16:41:53;4.67;;;1.90;;
14282;SDS011;7225;59.282;18.344;2023-03-23T16:44:20;2.80;;;1.37;;
14282;SDS011;7225;59.282;18.344;2023-03-23T16:46:47;4.87;;;2.13;;
14282;SDS011;7225;59.282;18.344;2023-03-23T16:49:14;5.80;;;1.63;;
14282;SDS011;7225;59.282;18.344;2023-03-23T16:51:41;4.60;;;1.50;;
14282;SDS011;7225;59.282;18.344;2023-03-23T16:54:08;5.63;;;1.60;;
14282;SDS011;7225;59.282;18.344;2023-03-23T16:56:35;3.87;;;1.70;;
14282;SDS011;7225;59.282;18.344;2023-03-23T16:59:03;4.77;;;1.80;;
14282;SDS011;7225;59.282;18.344;2023-03-23T17:01:30;3.47;;;1.47;;
14282;SDS011;7225;59.282;18.344;2023-03-23T17:03:57;2.10;;;1.50;;
14282;SDS011;7225;59.282;18.344;2023-03-23T17:06:24;2.57;;;1.40;;
14282;SDS011;7225;59.282;18.344;2023-03-23T17:08:51;3.53;;;1.57;;
14282;SDS011;7225;59.282;18.344;2023-03-23T17:11:18;4.20;;;1.37;;
14282;SDS011;7225;59.282;18.344;2023-03-23T17:13:45;4.43;;;1.50;;
14282;SDS011;7225;59.282;18.344;2023-03-23T17:16:12;3.97;;;1.60;;
14282;SDS011;7225;59.282;18.344;2023-03-23T17:18:39;2.03;;;1.40;;
14282;SDS011;7225;59.282;18.344;2023-03-23T17:21:06;3.10;;;1.37;;
14282;SDS011;7225;59.282;18.344;2023-03-23T17:23:33;1.50;;;1.40;;
14282;SDS011;7225;59.282;18.344;2023-03-23T17:26:00;2.00;;;1.80;;